sensor_id;sensor_type;location;lat;lon;timestamp;temperature;humidity
12233;DHT22;6179;51.748;8.728;2023-06-22T00:00:56;20.20;98.30
12233;DHT22;6179;51.748;8.728;2023-06-22T00:06:57;20.30;98.30
12233;DHT22;6179;51.748;8.728;2023-06-22T00:12:58;20.20;98.30
12233;DHT22;6179;51.748;8.728;2023-06-22T00:19:00;20.10;98.30
12233;DHT22;6179;51.748;8.728;2023-06-22T00:25:02;20.10;98.30
12233;DHT22;6179;51.748;8.728;2023-06-22T00:31:03;20.10;98.30
12233;DHT22;6179;51.748;8.728;2023-06-22T00:37:04;20.00;98.30
12233;DHT22;6179;51.748;8.728;2023-06-22T00:43:05;20.10;98.30
12233;DHT22;6179;51.748;8.728;2023-06-22T00:49:06;20.20;98.30
12233;DHT22;6179;51.748;8.728;2023-06-22T00:55:08;20.10;98.30
12233;DHT22;6179;51.748;8.728;2023-06-22T01:01:09;20.20;98.30
12233;DHT22;6179;51.748;8.728;2023-06-22T01:14:03;20.20;98.30
12233;DHT22;6179;51.748;8.728;2023-06-22T01:20:13;20.20;98.30
12233;DHT22;6179;51.748;8.728;2023-06-22T01:26:21;20.10;98.30
12233;DHT22;6179;51.748;8.728;2023-06-22T01:32:33;20.10;98.30
12233;DHT22;6179;51.748;8.728;2023-06-22T01:38:36;20.20;98.30
12233;DHT22;6179;51.748;8.728;2023-06-22T01:44:37;20.40;98.30
12233;DHT22;6179;51.748;8.728;2023-06-22T01:50:38;20.50;98.30
12233;DHT22;6179;51.748;8.728;2023-06-22T01:56:40;20.30;98.30
12233;DHT22;6179;51.748;8.728;2023-06-22T02:09:02;20.20;98.30
12233;DHT22;6179;51.748;8.728;2023-06-22T02:15:10;20.50;98.30
12233;DHT22;6179;51.748;8.728;2023-06-22T02:21:13;20.60;98.30
12233;DHT22;6179;51.748;8.728;2023-06-22T02:27:14;20.50;98.30
12233;DHT22;6179;51.748;8.728;2023-06-22T02:33:15;20.30;98.30
12233;DHT22;6179;51.748;8.728;2023-06-22T02:39:23;20.50;98.30
12233;DHT22;6179;51.748;8.728;2023-06-22T02:45:24;20.70;98.30
12233;DHT22;6179;51.748;8.728;2023-06-22T02:51:25;20.40;98.30
12233;DHT22;6179;51.748;8.728;2023-06-22T02:57:26;20.30;98.30
12233;DHT22;6179;51.748;8.728;2023-06-22T03:03:27;20.70;98.30
12233;DHT22;6179;51.748;8.728;2023-06-22T03:09:28;20.70;98.30
12233;DHT22;6179;51.748;8.728;2023-06-22T03:15:29;20.90;98.30
12233;DHT22;6179;51.748;8.728;2023-06-22T03:21:31;20.80;98.30
12233;DHT22;6179;51.748;8.728;2023-06-22T03:27:33;20.70;98.30
12233;DHT22;6179;51.748;8.728;2023-06-22T03:33:34;20.60;98.30
12233;DHT22;6179;51.748;8.728;2023-06-22T03:39:35;20.70;98.30
12233;DHT22;6179;51.748;8.728;2023-06-22T03:45:35;21.10;98.30
12233;DHT22;6179;51.748;8.728;2023-06-22T03:51:37;20.70;98.30
12233;DHT22;6179;51.748;8.728;2023-06-22T03:57:38;20.70;98.30
12233;DHT22;6179;51.748;8.728;2023-06-22T04:03:39;20.80;98.30
12233;DHT22;6179;51.748;8.728;2023-06-22T04:09:41;20.80;98.30
12233;DHT22;6179;51.748;8.728;2023-06-22T04:15:42;20.60;98.30
12233;DHT22;6179;51.748;8.728;2023-06-22T04:21:43;20.60;98.30
12233;DHT22;6179;51.748;8.728;2023-06-22T04:27:44;20.80;98.30
12233;DHT22;6179;51.748;8.728;2023-06-22T04:33:46;21.30;98.30
12233;DHT22;6179;51.748;8.728;2023-06-22T04:39:47;21.10;98.30
12233;DHT22;6179;51.748;8.728;2023-06-22T04:45:47;21.30;98.30
12233;DHT22;6179;51.748;8.728;2023-06-22T04:51:52;21.50;98.30
12233;DHT22;6179;51.748;8.728;2023-06-22T04:57:55;21.50;98.20
12233;DHT22;6179;51.748;8.728;2023-06-22T05:03:56;21.40;98.30
12233;DHT22;6179;51.748;8.728;2023-06-22T05:09:57;21.20;98.30
12233;DHT22;6179;51.748;8.728;2023-06-22T05:15:58;21.60;98.30
12233;DHT22;6179;51.748;8.728;2023-06-22T05:22:02;21.80;98.30
12233;DHT22;6179;51.748;8.728;2023-06-22T05:28:03;21.80;98.30
12233;DHT22;6179;51.748;8.728;2023-06-22T05:34:11;22.00;98.30
12233;DHT22;6179;51.748;8.728;2023-06-22T05:40:12;22.20;98.30
12233;DHT22;6179;51.748;8.728;2023-06-22T05:46:13;22.50;98.30
12233;DHT22;6179;51.748;8.728;2023-06-22T05:52:14;22.80;98.10
12233;DHT22;6179;51.748;8.728;2023-06-22T05:58:15;23.10;96.10
12233;DHT22;6179;51.748;8.728;2023-06-22T06:04:17;23.10;96.30
12233;DHT22;6179;51.748;8.728;2023-06-22T06:10:19;23.50;93.90
12233;DHT22;6179;51.748;8.728;2023-06-22T06:16:19;23.50;94.10
12233;DHT22;6179;51.748;8.728;2023-06-22T06:22:20;23.50;94.90
12233;DHT22;6179;51.748;8.728;2023-06-22T06:28:22;23.70;93.80
12233;DHT22;6179;51.748;8.728;2023-06-22T06:34:22;23.50;95.60
12233;DHT22;6179;51.748;8.728;2023-06-22T06:40:23;22.90;97.50
12233;DHT22;6179;51.748;8.728;2023-06-22T06:46:25;22.70;98.30
12233;DHT22;6179;51.748;8.728;2023-06-22T06:52:26;22.60;98.30
12233;DHT22;6179;51.748;8.728;2023-06-22T06:58:27;22.40;98.30
12233;DHT22;6179;51.748;8.728;2023-06-22T07:04:29;22.20;98.30
12233;DHT22;6179;51.748;8.728;2023-06-22T07:10:29;22.70;98.30
12233;DHT22;6179;51.748;8.728;2023-06-22T07:16:30;23.00;98.30
12233;DHT22;6179;51.748;8.728;2023-06-22T07:22:32;22.60;98.30
12233;DHT22;6179;51.748;8.728;2023-06-22T07:28:32;23.10;98.30
12233;DHT22;6179;51.748;8.728;2023-06-22T07:34:37;22.90;98.30
12233;DHT22;6179;51.748;8.728;2023-06-22T07:40:38;23.00;98.30
12233;DHT22;6179;51.748;8.728;2023-06-22T07:46:39;23.00;98.30
12233;DHT22;6179;51.748;8.728;2023-06-22T07:52:40;23.10;98.30
12233;DHT22;6179;51.748;8.728;2023-06-22T07:58:40;23.20;98.30
12233;DHT22;6179;51.748;8.728;2023-06-22T08:04:41;22.90;98.30
12233;DHT22;6179;51.748;8.728;2023-06-22T08:10:42;22.90;98.30
12233;DHT22;6179;51.748;8.728;2023-06-22T08:16:43;23.00;98.30
12233;DHT22;6179;51.748;8.728;2023-06-22T08:22:44;23.00;98.30
12233;DHT22;6179;51.748;8.728;2023-06-22T08:28:45;23.00;98.30
12233;DHT22;6179;51.748;8.728;2023-06-22T08:34:45;23.30;98.30
12233;DHT22;6179;51.748;8.728;2023-06-22T08:40:46;23.60;98.30
12233;DHT22;6179;51.748;8.728;2023-06-22T08:46:47;23.80;98.30
12233;DHT22;6179;51.748;8.728;2023-06-22T08:52:48;24.20;98.30
12233;DHT22;6179;51.748;8.728;2023-06-22T08:58:49;24.50;98.30
12233;DHT22;6179;51.748;8.728;2023-06-22T09:04:49;25.30;92.70
12233;DHT22;6179;51.748;8.728;2023-06-22T09:10:55;25.30;95.60
12233;DHT22;6179;51.748;8.728;2023-06-22T09:16:56;25.10;94.60
12233;DHT22;6179;51.748;8.728;2023-06-22T09:22:57;25.40;92.50
12233;DHT22;6179;51.748;8.728;2023-06-22T09:28:58;26.20;89.90
12233;DHT22;6179;51.748;8.728;2023-06-22T09:35:02;26.10;89.70
12233;DHT22;6179;51.748;8.728;2023-06-22T09:41:06;26.50;92.70
12233;DHT22;6179;51.748;8.728;2023-06-22T09:47:07;27.00;87.60
12233;DHT22;6179;51.748;8.728;2023-06-22T09:53:07;27.10;83.50
12233;DHT22;6179;51.748;8.728;2023-06-22T09:59:08;27.20;82.30
12233;DHT22;6179;51.748;8.728;2023-06-22T10:05:09;27.30;81.80
12233;DHT22;6179;51.748;8.728;2023-06-22T10:11:10;27.30;80.10
12233;DHT22;6179;51.748;8.728;2023-06-22T10:17:11;27.50;80.30
12233;DHT22;6179;51.748;8.728;2023-06-22T10:23:11;27.70;79.40
12233;DHT22;6179;51.748;8.728;2023-06-22T10:29:12;27.80;78.20
12233;DHT22;6179;51.748;8.728;2023-06-22T10:35:13;27.70;76.70
12233;DHT22;6179;51.748;8.728;2023-06-22T10:41:16;28.00;76.20
12233;DHT22;6179;51.748;8.728;2023-06-22T10:47:17;27.70;78.80
12233;DHT22;6179;51.748;8.728;2023-06-22T10:53:18;27.10;80.40
12233;DHT22;6179;51.748;8.728;2023-06-22T10:59:19;27.50;78.30
12233;DHT22;6179;51.748;8.728;2023-06-22T11:05:21;27.90;80.60
12233;DHT22;6179;51.748;8.728;2023-06-22T11:11:22;28.50;77.40
12233;DHT22;6179;51.748;8.728;2023-06-22T11:17:23;28.90;76.80
12233;DHT22;6179;51.748;8.728;2023-06-22T11:23:23;28.50;76.60
12233;DHT22;6179;51.748;8.728;2023-06-22T11:29:26;28.30;78.10
12233;DHT22;6179;51.748;8.728;2023-06-22T11:35:27;28.60;77.50
12233;DHT22;6179;51.748;8.728;2023-06-22T11:41:28;28.80;75.60
12233;DHT22;6179;51.748;8.728;2023-06-22T11:47:29;28.60;75.10
12233;DHT22;6179;51.748;8.728;2023-06-22T11:53:30;29.20;76.30
12233;DHT22;6179;51.748;8.728;2023-06-22T11:59:30;29.50;73.60
12233;DHT22;6179;51.748;8.728;2023-06-22T12:05:31;29.90;71.70
12233;DHT22;6179;51.748;8.728;2023-06-22T12:11:32;29.70;70.80
12233;DHT22;6179;51.748;8.728;2023-06-22T12:17:34;29.50;73.70
12233;DHT22;6179;51.748;8.728;2023-06-22T12:23:35;29.10;73.60
12233;DHT22;6179;51.748;8.728;2023-06-22T12:29:36;28.60;78.10
12233;DHT22;6179;51.748;8.728;2023-06-22T12:35:36;28.20;79.50
12233;DHT22;6179;51.748;8.728;2023-06-22T12:41:37;28.00;81.80
12233;DHT22;6179;51.748;8.728;2023-06-22T12:47:38;27.70;87.30
12233;DHT22;6179;51.748;8.728;2023-06-22T12:53:38;27.00;93.30
12233;DHT22;6179;51.748;8.728;2023-06-22T12:59:44;27.20;91.10
12233;DHT22;6179;51.748;8.728;2023-06-22T13:05:44;26.70;94.00
12233;DHT22;6179;51.748;8.728;2023-06-22T13:11:45;25.70;97.70
12233;DHT22;6179;51.748;8.728;2023-06-22T13:17:46;25.50;98.30
12233;DHT22;6179;51.748;8.728;2023-06-22T13:23:47;25.40;98.30
12233;DHT22;6179;51.748;8.728;2023-06-22T13:29:48;24.80;98.30
12233;DHT22;6179;51.748;8.728;2023-06-22T13:35:48;24.40;98.30
12233;DHT22;6179;51.748;8.728;2023-06-22T13:41:49;24.10;98.30
12233;DHT22;6179;51.748;8.728;2023-06-22T13:47:50;24.10;98.30
12233;DHT22;6179;51.748;8.728;2023-06-22T13:53:51;23.50;98.30
12233;DHT22;6179;51.748;8.728;2023-06-22T13:59:52;22.70;98.30
12233;DHT22;6179;51.748;8.728;2023-06-22T14:05:53;22.70;98.30
12233;DHT22;6179;51.748;8.728;2023-06-22T14:11:56;22.40;98.30
12233;DHT22;6179;51.748;8.728;2023-06-22T14:17:56;22.00;98.30
12233;DHT22;6179;51.748;8.728;2023-06-22T14:23:57;22.10;98.30
12233;DHT22;6179;51.748;8.728;2023-06-22T14:29:58;21.90;98.30
12233;DHT22;6179;51.748;8.728;2023-06-22T14:35:59;22.00;98.30
12233;DHT22;6179;51.748;8.728;2023-06-22T14:41:59;21.80;98.30
12233;DHT22;6179;51.748;8.728;2023-06-22T14:48:01;21.40;98.30
12233;DHT22;6179;51.748;8.728;2023-06-22T14:54:02;21.60;98.30
12233;DHT22;6179;51.748;8.728;2023-06-22T15:00:03;21.40;98.30
12233;DHT22;6179;51.748;8.728;2023-06-22T15:06:07;21.50;98.30
12233;DHT22;6179;51.748;8.728;2023-06-22T15:12:09;21.40;98.30
12233;DHT22;6179;51.748;8.728;2023-06-22T15:18:12;21.50;98.30
12233;DHT22;6179;51.748;8.728;2023-06-22T15:24:14;21.70;98.30
12233;DHT22;6179;51.748;8.728;2023-06-22T15:30:14;21.90;98.30
12233;DHT22;6179;51.748;8.728;2023-06-22T15:36:15;22.50;98.30
12233;DHT22;6179;51.748;8.728;2023-06-22T15:42:16;23.00;98.30
12233;DHT22;6179;51.748;8.728;2023-06-22T15:48:17;23.40;98.30
12233;DHT22;6179;51.748;8.728;2023-06-22T15:54:18;23.60;98.30
12233;DHT22;6179;51.748;8.728;2023-06-22T16:00:19;23.20;98.30
12233;DHT22;6179;51.748;8.728;2023-06-22T16:06:20;23.50;98.30
12233;DHT22;6179;51.748;8.728;2023-06-22T16:12:21;23.30;98.30
12233;DHT22;6179;51.748;8.728;2023-06-22T16:18:22;23.30;98.30
12233;DHT22;6179;51.748;8.728;2023-06-22T16:24:23;23.30;98.30
12233;DHT22;6179;51.748;8.728;2023-06-22T16:30:24;23.10;98.30
12233;DHT22;6179;51.748;8.728;2023-06-22T16:36:25;22.90;98.30
12233;DHT22;6179;51.748;8.728;2023-06-22T16:42:25;22.90;98.30
12233;DHT22;6179;51.748;8.728;2023-06-22T16:48:26;22.50;98.30
12233;DHT22;6179;51.748;8.728;2023-06-22T16:54:29;22.10;98.30
12233;DHT22;6179;51.748;8.728;2023-06-22T17:00:30;22.70;98.30
12233;DHT22;6179;51.748;8.728;2023-06-22T17:06:31;22.70;98.30
12233;DHT22;6179;51.748;8.728;2023-06-22T17:12:32;22.10;98.30
12233;DHT22;6179;51.748;8.728;2023-06-22T17:18:34;22.20;98.30
12233;DHT22;6179;51.748;8.728;2023-06-22T17:24:36;22.30;98.30
12233;DHT22;6179;51.748;8.728;2023-06-22T17:30:38;22.30;98.30
12233;DHT22;6179;51.748;8.728;2023-06-22T17:36:47;21.90;98.30
12233;DHT22;6179;51.748;8.728;2023-06-22T17:42:49;21.90;98.30
12233;DHT22;6179;51.748;8.728;2023-06-22T17:48:50;22.00;98.30
12233;DHT22;6179;51.748;8.728;2023-06-22T17:54:51;22.00;98.30
12233;DHT22;6179;51.748;8.728;2023-06-22T18:00:51;21.70;98.30
12233;DHT22;6179;51.748;8.728;2023-06-22T18:06:53;21.80;98.30
12233;DHT22;6179;51.748;8.728;2023-06-22T18:12:55;21.50;98.30
12233;DHT22;6179;51.748;8.728;2023-06-22T18:18:59;21.60;98.30
12233;DHT22;6179;51.748;8.728;2023-06-22T18:25:01;21.70;98.30
12233;DHT22;6179;51.748;8.728;2023-06-22T18:31:03;21.30;98.30
12233;DHT22;6179;51.748;8.728;2023-06-22T18:37:13;21.50;98.30
12233;DHT22;6179;51.748;8.728;2023-06-22T18:43:21;21.20;98.30
12233;DHT22;6179;51.748;8.728;2023-06-22T18:49:24;21.40;98.30
12233;DHT22;6179;51.748;8.728;2023-06-22T18:55:26;21.40;98.30
12233;DHT22;6179;51.748;8.728;2023-06-22T19:01:30;20.90;98.30
12233;DHT22;6179;51.748;8.728;2023-06-22T19:13:53;20.90;98.30
12233;DHT22;6179;51.748;8.728;2023-06-22T19:19:54;21.10;98.30
12233;DHT22;6179;51.748;8.728;2023-06-22T19:25:57;20.80;98.30
12233;DHT22;6179;51.748;8.728;2023-06-22T19:32:01;20.90;98.30
12233;DHT22;6179;51.748;8.728;2023-06-22T19:38:02;20.90;98.30
12233;DHT22;6179;51.748;8.728;2023-06-22T19:44:03;20.90;98.30
12233;DHT22;6179;51.748;8.728;2023-06-22T19:50:05;21.10;98.30
12233;DHT22;6179;51.748;8.728;2023-06-22T19:56:06;21.00;98.30
12233;DHT22;6179;51.748;8.728;2023-06-22T20:02:08;20.90;98.30
12233;DHT22;6179;51.748;8.728;2023-06-22T20:08:16;21.00;98.30
12233;DHT22;6179;51.748;8.728;2023-06-22T20:14:20;20.70;98.30
12233;DHT22;6179;51.748;8.728;2023-06-22T20:20:25;20.50;98.30
12233;DHT22;6179;51.748;8.728;2023-06-22T20:26:27;20.50;98.30
12233;DHT22;6179;51.748;8.728;2023-06-22T20:32:31;20.50;98.30
12233;DHT22;6179;51.748;8.728;2023-06-22T20:38:33;20.50;98.30
12233;DHT22;6179;51.748;8.728;2023-06-22T20:44:36;20.60;98.30
12233;DHT22;6179;51.748;8.728;2023-06-22T20:50:36;20.70;98.30
12233;DHT22;6179;51.748;8.728;2023-06-22T20:56:37;20.70;98.30
12233;DHT22;6179;51.748;8.728;2023-06-22T21:02:38;20.50;98.30
12233;DHT22;6179;51.748;8.728;2023-06-22T21:08:39;20.70;98.30
12233;DHT22;6179;51.748;8.728;2023-06-22T21:14:40;20.80;98.30
12233;DHT22;6179;51.748;8.728;2023-06-22T21:20:40;21.10;98.30
12233;DHT22;6179;51.748;8.728;2023-06-22T21:26:42;21.00;98.30
12233;DHT22;6179;51.748;8.728;2023-06-22T21:32:43;20.70;98.30
12233;DHT22;6179;51.748;8.728;2023-06-22T21:38:44;20.90;98.30
12233;DHT22;6179;51.748;8.728;2023-06-22T21:44:45;21.00;98.30
12233;DHT22;6179;51.748;8.728;2023-06-22T21:50:46;20.80;98.30
12233;DHT22;6179;51.748;8.728;2023-06-22T21:56:47;20.70;98.30
12233;DHT22;6179;51.748;8.728;2023-06-22T22:02:47;20.90;98.30
12233;DHT22;6179;51.748;8.728;2023-06-22T22:08:49;21.00;98.30
12233;DHT22;6179;51.748;8.728;2023-06-22T22:14:50;21.20;98.30
12233;DHT22;6179;51.748;8.728;2023-06-22T22:20:51;20.90;98.30
12233;DHT22;6179;51.748;8.728;2023-06-22T22:26:51;20.50;98.30
12233;DHT22;6179;51.748;8.728;2023-06-22T22:32:52;20.80;98.30
12233;DHT22;6179;51.748;8.728;2023-06-22T22:38:53;20.90;98.30
12233;DHT22;6179;51.748;8.728;2023-06-22T22:44:54;21.00;98.30
12233;DHT22;6179;51.748;8.728;2023-06-22T22:50:54;20.80;98.30
12233;DHT22;6179;51.748;8.728;2023-06-22T22:56:55;20.80;98.30
12233;DHT22;6179;51.748;8.728;2023-06-22T23:02:56;20.90;98.30
12233;DHT22;6179;51.748;8.728;2023-06-22T23:08:58;20.80;98.30
12233;DHT22;6179;51.748;8.728;2023-06-22T23:14:59;20.70;98.30
12233;DHT22;6179;51.748;8.728;2023-06-22T23:21:01;20.60;98.30
12233;DHT22;6179;51.748;8.728;2023-06-22T23:27:03;20.60;98.30
12233;DHT22;6179;51.748;8.728;2023-06-22T23:33:04;20.80;98.30
12233;DHT22;6179;51.748;8.728;2023-06-22T23:39:05;20.90;98.30
12233;DHT22;6179;51.748;8.728;2023-06-22T23:45:06;20.60;98.30
12233;DHT22;6179;51.748;8.728;2023-06-22T23:51:09;20.60;98.30
12233;DHT22;6179;51.748;8.728;2023-06-22T23:57:10;20.60;98.30
